Time;durP1;ratioP1;P1;durP2;ratioP2;P2;SDS_P1;SDS_P2;PMS_P1;PMS_P2;Temp;Humidity;BMP_temperature;BMP_pressure;BME280_temperature;BME280_humidity;BME280_pressure;Samples;Min_cycle;Max_cycle;Signal;HPM_P1;HPM_P2
2023/07/25 00:00:35;;;;;;;16.73;4.20;;;15.10;99.90;;;;;;4917438;29;20192;-85
2023/07/25 00:03:01;;;;;;;10.45;3.90;;;15.10;99.90;;;;;;4917187;29;20206;-84
2023/07/25 00:05:27;;;;;;;10.15;3.92;;;15.10;99.90;;;;;;4912732;29;20188;-85
2023/07/25 00:07:53;;;;;;;13.82;4.22;;;15.10;99.90;;;;;;4912276;29;20266;-85
2023/07/25 00:10:19;;;;;;;14.95;4.53;;;15.10;99.90;;;;;;4934606;29;20555;-83
2023/07/25 00:12:45;;;;;;;12.85;4.20;;;15.00;99.90;;;;;;4935690;29;20197;-85
2023/07/25 00:15:11;;;;;;;11.68;4.00;;;15.00;99.90;;;;;;4942090;29;20183;-85
2023/07/25 00:17:37;;;;;;;11.18;3.80;;;15.00;99.90;;;;;;4936735;29;20227;-85
2023/07/25 00:20:04;;;;;;;16.00;4.28;;;15.00;99.90;;;;;;4918050;29;20226;-84
2023/07/25 00:22:29;;;;;;;12.75;3.92;;;15.00;99.90;;;;;;4928550;29;20554;-86
2023/07/25 00:24:55;;;;;;;9.15;3.60;;;15.00;99.90;;;;;;4936030;29;20188;-84
2023/07/25 00:27:22;;;;;;;11.48;3.83;;;14.90;99.90;;;;;;4938054;29;20246;-84
2023/07/25 00:29:51;;;;;;;12.23;3.50;;;14.90;99.90;;;;;;4936000;29;20195;-84
2023/07/25 00:32:18;;;;;;;13.75;3.80;;;14.80;99.90;;;;;;4936467;29;20193;-85
2023/07/25 00:34:44;;;;;;;11.45;3.55;;;14.80;99.90;;;;;;4933893;29;20211;-84
2023/07/25 00:37:10;;;;;;;16.90;3.70;;;14.80;99.90;;;;;;4921020;29;20195;-85
2023/07/25 00:39:35;;;;;;;13.07;3.80;;;14.70;99.90;;;;;;4902467;29;20237;-84
2023/07/25 00:42:01;;;;;;;13.68;3.75;;;14.70;99.90;;;;;;4920715;29;20195;-83
2023/07/25 00:44:27;;;;;;;8.35;3.35;;;14.70;99.90;;;;;;4917554;29;20566;-84
2023/07/25 00:46:53;;;;;;;8.75;3.08;;;14.70;99.90;;;;;;4916642;29;20184;-83
2023/07/25 00:49:19;;;;;;;10.18;3.38;;;14.70;99.90;;;;;;4948524;29;20266;-83
2023/07/25 00:51:45;;;;;;;15.88;3.17;;;14.70;99.90;;;;;;4934354;29;20295;-84
2023/07/25 00:54:10;;;;;;;9.65;3.50;;;14.70;99.90;;;;;;4936138;29;20243;-85
2023/07/25 00:56:36;;;;;;;13.73;3.70;;;14.70;99.90;;;;;;4919376;29;20187;-84
2023/07/25 00:59:02;;;;;;;11.18;3.22;;;14.70;99.90;;;;;;4918596;29;20202;-84
2023/07/25 01:01:28;;;;;;;14.23;3.67;;;14.70;99.90;;;;;;4921164;29;20187;-83
2023/07/25 01:03:57;;;;;;;11.43;3.40;;;14.70;99.90;;;;;;4938931;29;20196;-84
2023/07/25 01:06:23;;;;;;;9.25;3.53;;;14.70;99.90;;;;;;4940769;29;20191;-84
2023/07/25 01:08:54;;;;;;;15.80;3.75;;;14.70;99.90;;;;;;4918217;29;20187;-85
2023/07/25 01:11:21;;;;;;;11.30;3.47;;;14.70;99.90;;;;;;4937151;29;20681;-86
2023/07/25 01:13:47;;;;;;;15.02;3.60;;;14.70;99.90;;;;;;4938248;29;20274;-84
2023/07/25 01:16:17;;;;;;;11.13;3.70;;;14.60;99.90;;;;;;4920350;29;20196;-84
2023/07/25 01:18:44;;;;;;;8.55;3.05;;;14.60;99.90;;;;;;4935116;29;20187;-84
2023/07/25 01:21:11;;;;;;;11.60;3.40;;;14.60;99.90;;;;;;4931703;29;20191;-84
2023/07/25 01:23:38;;;;;;;10.95;3.53;;;14.60;99.90;;;;;;4934211;29;20577;-84
2023/07/25 01:26:05;;;;;;;13.20;4.00;;;14.60;99.90;;;;;;4934338;29;20183;-84
2023/07/25 01:28:31;;;;;;;9.07;3.60;;;14.60;99.90;;;;;;4921615;29;20234;-85
2023/07/25 01:30:57;;;;;;;13.07;3.65;;;14.60;99.90;;;;;;4935096;29;20230;-84
2023/07/25 01:33:23;;;;;;;9.15;3.47;;;14.70;99.90;;;;;;4936289;29;20207;-84
2023/07/25 01:35:49;;;;;;;10.85;3.63;;;14.70;99.90;;;;;;4924051;29;20192;-84
2023/07/25 01:38:15;;;;;;;14.18;3.30;;;14.70;99.90;;;;;;4915572;29;20195;-85
2023/07/25 01:40:42;;;;;;;13.63;3.55;;;14.70;99.90;;;;;;4918960;29;20183;-85
2023/07/25 01:43:09;;;;;;;15.30;4.00;;;14.70;99.90;;;;;;4942303;29;20667;-84
2023/07/25 01:45:36;;;;;;;11.20;3.50;;;14.70;99.90;;;;;;4936961;29;20371;-85
2023/07/25 01:48:02;;;;;;;10.98;3.25;;;14.70;99.90;;;;;;4950651;28;20660;-84
2023/07/25 01:50:28;;;;;;;12.75;3.47;;;14.80;99.90;;;;;;4934984;29;20197;-85
2023/07/25 01:52:54;;;;;;;7.75;3.40;;;14.80;99.90;;;;;;4938194;28;20183;-84
2023/07/25 01:55:20;;;;;;;12.55;3.53;;;14.80;99.90;;;;;;4939206;29;20285;-84
2023/07/25 01:57:46;;;;;;;14.20;3.42;;;14.80;99.90;;;;;;4909135;29;20226;-85
2023/07/25 02:00:12;;;;;;;10.18;3.67;;;14.80;99.90;;;;;;4921159;29;20212;-84
2023/07/25 02:02:38;;;;;;;9.90;3.53;;;14.80;99.90;;;;;;4943007;28;20193;-85
2023/07/25 02:05:05;;;;;;;9.30;3.42;;;14.80;99.90;;;;;;4925640;29;20294;-84
2023/07/25 02:07:31;;;;;;;15.02;3.72;;;14.80;99.90;;;;;;4940080;29;20187;-84
2023/07/25 02:09:57;;;;;;;14.85;3.75;;;14.80;99.90;;;;;;4926854;29;20190;-84
2023/07/25 02:12:23;;;;;;;11.90;3.40;;;14.90;99.90;;;;;;4945280;28;20183;-84
2023/07/25 02:14:49;;;;;;;9.52;3.80;;;14.80;99.90;;;;;;4923858;29;20690;-85
2023/07/25 02:17:15;;;;;;;12.05;3.70;;;14.80;99.90;;;;;;4933136;29;20183;-85
2023/07/25 02:19:40;;;;;;;11.13;3.58;;;14.90;99.90;;;;;;4941637;29;20266;-85
2023/07/25 02:22:07;;;;;;;15.07;3.67;;;14.90;99.90;;;;;;4936877;29;21634;-84
2023/07/25 02:24:34;;;;;;;10.52;3.35;;;14.80;99.90;;;;;;4924634;29;20252;-84
2023/07/25 02:27:00;;;;;;;16.00;3.90;;;14.80;99.90;;;;;;4939878;29;20591;-84
2023/07/25 02:29:26;;;;;;;10.00;3.50;;;14.80;99.90;;;;;;4926500;29;20238;-83
2023/07/25 02:31:52;;;;;;;11.85;3.67;;;14.80;99.90;;;;;;4933041;29;20616;-84
2023/07/25 02:34:18;;;;;;;12.00;3.88;;;14.80;99.90;;;;;;4914921;29;20247;-85
2023/07/25 02:36:44;;;;;;;11.98;3.78;;;14.80;99.90;;;;;;4932946;29;20426;-85
2023/07/25 02:39:10;;;;;;;12.95;3.70;;;14.80;99.90;;;;;;4917588;29;20220;-84
2023/07/25 02:41:36;;;;;;;9.02;3.33;;;14.80;99.90;;;;;;4915832;29;20222;-85
2023/07/25 02:44:03;;;;;;;11.65;3.35;;;14.80;99.90;;;;;;4929108;29;20203;-84
2023/07/25 02:46:29;;;;;;;12.63;3.53;;;14.80;99.90;;;;;;4948672;28;20271;-84
2023/07/25 02:48:55;;;;;;;14.27;3.58;;;14.80;99.90;;;;;;4933016;29;20191;-84
2023/07/25 02:51:21;;;;;;;10.30;3.38;;;14.70;99.90;;;;;;4925354;29;20187;-84
2023/07/25 02:53:47;;;;;;;13.27;3.38;;;14.80;99.90;;;;;;4915931;29;20665;-84
2023/07/25 02:56:13;;;;;;;6.82;3.22;;;14.70;99.90;;;;;;4934963;29;20905;-84
2023/07/25 02:58:39;;;;;;;9.40;3.60;;;14.80;99.90;;;;;;4940466;29;20182;-86
2023/07/25 03:01:04;;;;;;;13.00;3.63;;;14.80;99.90;;;;;;4940608;29;20195;-84
2023/07/25 03:03:30;;;;;;;12.68;3.90;;;14.80;99.90;;;;;;4934886;29;20683;-84
2023/07/25 03:05:56;;;;;;;11.57;3.47;;;14.80;99.90;;;;;;4933404;29;20685;-84
2023/07/25 03:08:22;;;;;;;12.13;3.65;;;14.80;99.90;;;;;;4923046;29;20562;-86
2023/07/25 03:10:48;;;;;;;10.65;3.45;;;14.80;99.90;;;;;;4945178;29;20187;-85
2023/07/25 03:13:14;;;;;;;10.00;3.30;;;14.80;99.90;;;;;;4922533;29;20218;-86
2023/07/25 03:15:40;;;;;;;14.00;3.65;;;14.80;99.90;;;;;;4906339;29;20191;-85
2023/07/25 03:18:06;;;;;;;8.52;3.28;;;14.80;99.90;;;;;;4938516;29;20218;-85
2023/07/25 03:20:32;;;;;;;14.30;3.70;;;14.80;99.90;;;;;;4913544;29;20200;-84
2023/07/25 03:22:57;;;;;;;10.98;3.50;;;14.80;99.90;;;;;;4915597;29;20200;-85
2023/07/25 03:25:23;;;;;;;11.65;3.42;;;14.80;99.90;;;;;;4933904;29;20187;-85
2023/07/25 03:27:49;;;;;;;9.38;3.40;;;14.80;99.90;;;;;;4933009;29;20619;-85
2023/07/25 03:30:15;;;;;;;15.52;3.22;;;14.80;99.90;;;;;;4922796;29;20577;-85
2023/07/25 03:32:40;;;;;;;8.40;3.30;;;14.80;99.90;;;;;;4937257;29;20199;-85
2023/07/25 03:35:07;;;;;;;20.17;3.75;;;14.80;99.90;;;;;;4914296;29;20259;-85
2023/07/25 03:37:32;;;;;;;12.52;3.55;;;14.80;99.90;;;;;;4914944;29;20637;-86
2023/07/25 03:39:58;;;;;;;10.73;3.67;;;14.80;99.90;;;;;;4935489;28;20221;-86
2023/07/25 03:42:24;;;;;;;10.45;3.25;;;14.80;99.90;;;;;;4912974;29;20201;-86
2023/07/25 03:44:51;;;;;;;8.38;3.17;;;14.90;99.90;;;;;;4922921;29;20191;-84
2023/07/25 03:47:17;;;;;;;8.98;3.05;;;14.90;99.90;;;;;;4907705;29;20188;-85
2023/07/25 03:49:42;;;;;;;10.30;3.67;;;14.90;99.90;;;;;;4935462;29;20532;-85
2023/07/25 03:52:09;;;;;;;12.88;3.85;;;14.90;99.90;;;;;;4938434;29;20206;-85
2023/07/25 03:54:34;;;;;;;16.88;3.83;;;14.90;99.90;;;;;;4921167;29;20207;-85
2023/07/25 03:57:01;;;;;;;10.98;3.70;;;14.90;99.90;;;;;;4921592;29;20250;-85
2023/07/25 03:59:27;;;;;;;10.95;3.80;;;14.90;99.90;;;;;;4909501;29;20294;-84
2023/07/25 04:01:53;;;;;;;9.75;3.97;;;14.90;99.90;;;;;;4937670;29;20273;-82
2023/07/25 04:04:19;;;;;;;18.63;4.10;;;14.90;99.90;;;;;;4945185;29;20191;-84
2023/07/25 04:06:44;;;;;;;14.50;3.50;;;14.90;99.90;;;;;;4920934;29;20198;-84
2023/07/25 04:09:10;;;;;;;13.30;4.25;;;14.90;99.90;;;;;;4933755;29;20561;-83
2023/07/25 04:11:36;;;;;;;11.40;3.45;;;14.90;99.90;;;;;;4918992;29;20262;-84
2023/07/25 04:14:02;;;;;;;13.13;4.05;;;14.90;99.90;;;;;;4922842;29;20211;-82
2023/07/25 04:16:28;;;;;;;11.35;3.70;;;14.90;99.90;;;;;;4934326;29;20203;-83
2023/07/25 04:18:54;;;;;;;15.55;3.60;;;14.90;99.90;;;;;;4931906;29;20541;-83
2023/07/25 04:21:20;;;;;;;15.35;3.70;;;14.90;99.90;;;;;;4918663;29;20207;-82
2023/07/25 04:23:46;;;;;;;9.95;3.25;;;14.90;99.90;;;;;;4925754;29;20206;-84
2023/07/25 04:26:12;;;;;;;13.65;3.20;;;14.80;99.90;;;;;;4922948;29;20202;-85
2023/07/25 04:28:37;;;;;;;11.38;3.63;;;14.80;99.90;;;;;;4911208;29;20231;-84
2023/07/25 04:31:03;;;;;;;15.15;3.83;;;14.80;99.90;;;;;;4923769;29;20195;-84
2023/07/25 04:33:29;;;;;;;10.90;3.28;;;14.80;99.90;;;;;;4909839;29;20212;-84
2023/07/25 04:35:55;;;;;;;11.07;3.25;;;14.80;99.90;;;;;;4934841;29;20199;-84
2023/07/25 04:38:21;;;;;;;10.02;3.35;;;14.80;99.90;;;;;;4925113;29;20188;-85
2023/07/25 04:40:46;;;;;;;12.25;3.78;;;14.80;99.90;;;;;;4920333;29;20274;-83
2023/07/25 04:43:13;;;;;;;16.48;3.60;;;14.80;99.90;;;;;;4924111;29;20201;-83
2023/07/25 04:45:39;;;;;;;11.05;3.53;;;14.80;99.90;;;;;;4953205;28;20223;-83
2023/07/25 04:48:05;;;;;;;12.55;3.20;;;14.80;99.90;;;;;;4935897;29;20730;-83
2023/07/25 04:50:31;;;;;;;10.15;3.28;;;14.80;99.90;;;;;;4920213;29;20215;-84
2023/07/25 04:52:57;;;;;;;9.45;3.60;;;14.80;99.90;;;;;;4936073;29;20223;-82
2023/07/25 04:55:23;;;;;;;9.90;3.30;;;14.80;99.90;;;;;;4935773;29;20629;-83
2023/07/25 04:57:50;;;;;;;9.35;3.20;;;14.80;99.90;;;;;;4941454;29;20183;-82
2023/07/25 05:00:16;;;;;;;11.45;3.33;;;14.80;99.90;;;;;;4951990;28;20194;-83
2023/07/25 05:02:42;;;;;;;8.20;3.00;;;14.80;99.90;;;;;;4908822;29;20656;-83
2023/07/25 05:05:12;;;;;;;9.05;3.00;;;14.80;99.90;;;;;;4936122;29;20199;-88
2023/07/25 05:07:38;;;;;;;10.90;3.10;;;14.80;99.90;;;;;;4959223;28;20302;-85
2023/07/25 05:10:04;;;;;;;14.45;3.22;;;14.90;99.90;;;;;;4927884;29;20198;-85
2023/07/25 05:12:30;;;;;;;8.32;3.10;;;14.90;99.90;;;;;;4936907;29;20188;-87
2023/07/25 05:14:56;;;;;;;11.88;2.90;;;14.90;99.90;;;;;;4952333;28;20548;-84
2023/07/25 05:17:22;;;;;;;11.02;2.90;;;14.90;99.90;;;;;;4934626;29;20234;-88
2023/07/25 05:19:47;;;;;;;8.18;2.80;;;14.90;99.90;;;;;;4923211;29;20664;-85
2023/07/25 05:22:13;;;;;;;11.13;2.80;;;14.90;99.90;;;;;;4937277;29;20195;-87
2023/07/25 05:24:39;;;;;;;13.80;2.65;;;14.90;99.90;;;;;;4936362;29;20195;-85
2023/07/25 05:27:05;;;;;;;9.35;3.10;;;15.00;99.90;;;;;;4925204;29;20667;-85
2023/07/25 05:29:33;;;;;;;13.80;2.97;;;14.90;99.90;;;;;;4921925;29;20707;-88
2023/07/25 05:31:59;;;;;;;12.45;2.80;;;14.90;99.90;;;;;;4939760;29;20195;-89
2023/07/25 05:34:25;;;;;;;9.05;2.97;;;15.00;99.90;;;;;;4929240;29;20210;-87
2023/07/25 05:36:54;;;;;;;7.22;2.63;;;15.00;99.90;;;;;;4939761;29;20283;-83
2023/07/25 05:39:19;;;;;;;15.38;3.05;;;15.00;99.90;;;;;;4934812;29;20191;-83
2023/07/25 05:41:45;;;;;;;6.88;2.63;;;15.00;99.90;;;;;;4923129;29;20219;-83
2023/07/25 05:44:13;;;;;;;11.00;2.72;;;15.00;99.90;;;;;;4937222;29;20242;-82
2023/07/25 05:46:38;;;;;;;9.10;2.63;;;15.00;99.90;;;;;;4944035;28;20191;-84
2023/07/25 05:49:04;;;;;;;13.25;2.83;;;15.00;99.90;;;;;;4936347;29;20193;-83
2023/07/25 05:51:30;;;;;;;10.65;2.53;;;15.00;99.90;;;;;;4955079;29;20187;-90
2023/07/25 05:53:56;;;;;;;9.00;2.65;;;15.00;99.90;;;;;;4940723;29;20309;-86
2023/07/25 05:56:23;;;;;;;10.65;2.90;;;15.00;99.90;;;;;;4940079;29;20194;-85
2023/07/25 05:58:49;;;;;;;10.23;2.88;;;15.00;99.90;;;;;;4952050;28;20187;-89
2023/07/25 06:01:15;;;;;;;10.07;2.55;;;15.00;99.90;;;;;;4933593;29;20198;-86
2023/07/25 06:03:41;;;;;;;8.63;2.28;;;15.00;99.90;;;;;;4931291;29;20636;-86
2023/07/25 06:06:07;;;;;;;9.57;2.47;;;15.10;99.90;;;;;;4922641;29;20196;-84
2023/07/25 06:08:33;;;;;;;8.05;2.80;;;15.10;99.90;;;;;;4952282;28;20186;-83
2023/07/25 06:10:59;;;;;;;11.68;2.70;;;15.20;99.90;;;;;;4938616;29;20646;-84
2023/07/25 06:13:25;;;;;;;9.88;2.50;;;15.20;99.90;;;;;;4936660;29;20214;-83
2023/07/25 06:15:50;;;;;;;11.20;2.60;;;15.20;99.90;;;;;;4930711;29;20191;-80
2023/07/25 06:18:16;;;;;;;9.27;2.50;;;15.30;99.90;;;;;;4917193;29;20183;-81
2023/07/25 06:20:42;;;;;;;17.67;2.70;;;15.30;99.90;;;;;;4933533;29;20183;-84
2023/07/25 06:23:08;;;;;;;9.50;2.40;;;15.40;99.90;;;;;;4902225;29;20191;-85
2023/07/25 06:25:34;;;;;;;12.13;2.55;;;15.50;99.90;;;;;;4941458;29;20181;-86
2023/07/25 06:28:00;;;;;;;9.82;2.45;;;15.50;99.90;;;;;;4928492;29;20227;-88
2023/07/25 06:30:26;;;;;;;9.18;2.55;;;15.60;99.90;;;;;;4918373;29;20191;-88
2023/07/25 06:32:52;;;;;;;7.95;2.35;;;15.60;99.90;;;;;;4935200;29;20195;-89
2023/07/25 06:35:18;;;;;;;8.55;2.47;;;15.70;99.90;;;;;;4916412;29;20195;-87
2023/07/25 06:37:43;;;;;;;14.18;2.45;;;15.70;99.90;;;;;;4929815;29;20200;-89
2023/07/25 06:40:10;;;;;;;10.07;2.13;;;15.80;99.90;;;;;;4928244;29;20188;-89
2023/07/25 06:42:38;;;;;;;8.52;1.90;;;15.80;99.90;;;;;;4929819;29;20227;-89
2023/07/25 06:45:12;;;;;;;8.02;1.83;;;15.90;99.90;;;;;;4916821;29;20191;-91
2023/07/25 06:47:38;;;;;;;7.60;1.55;;;15.90;99.90;;;;;;4933394;29;20722;-88
2023/07/25 06:50:05;;;;;;;7.43;1.70;;;16.10;99.90;;;;;;4936365;29;20191;-91
2023/07/25 06:52:30;;;;;;;9.80;1.92;;;16.10;99.90;;;;;;4921545;29;20184;-89
2023/07/25 06:54:57;;;;;;;9.15;1.90;;;16.20;99.90;;;;;;4928529;29;20210;-90
2023/07/25 06:57:23;;;;;;;11.32;1.70;;;16.20;99.90;;;;;;4933038;29;20198;-91
2023/07/25 06:59:49;;;;;;;9.88;1.90;;;16.30;99.90;;;;;;4927806;29;20187;-90
2023/07/25 07:02:15;;;;;;;9.32;1.95;;;16.40;99.90;;;;;;4932116;29;20190;-89
2023/07/25 07:04:41;;;;;;;9.20;1.77;;;16.50;99.90;;;;;;4946646;29;20218;-90
2023/07/25 07:07:07;;;;;;;5.75;1.50;;;16.60;99.90;;;;;;4944842;29;20207;-89
2023/07/25 07:09:33;;;;;;;9.82;1.55;;;16.60;99.90;;;;;;4921702;29;20191;-90
2023/07/25 07:11:59;;;;;;;6.70;1.35;;;16.70;99.90;;;;;;4945870;29;20207;-89
2023/07/25 07:14:26;;;;;;;12.63;1.50;;;16.70;99.90;;;;;;4932642;29;20301;-89
2023/07/25 07:16:51;;;;;;;6.25;1.08;;;16.80;99.90;;;;;;4937827;29;20183;-89
2023/07/25 07:19:17;;;;;;;6.15;1.50;;;16.80;99.90;;;;;;4938250;29;20191;-90
2023/07/25 07:21:43;;;;;;;6.00;1.25;;;16.80;99.90;;;;;;4936404;29;20191;-90
2023/07/25 07:24:09;;;;;;;4.20;1.20;;;16.90;99.90;;;;;;4935120;29;20188;-90
2023/07/25 07:26:35;;;;;;;3.30;1.30;;;17.00;99.90;;;;;;4936453;29;20706;-89
2023/07/25 07:29:01;;;;;;;3.42;1.45;;;17.00;99.90;;;;;;4945636;29;20420;-87
2023/07/25 07:31:27;;;;;;;5.75;0.98;;;17.20;99.90;;;;;;4922470;29;20195;-88
2023/07/25 07:34:07;;;;;;;7.82;1.27;;;17.30;99.90;;;;;;4939143;29;20211;-87
2023/07/25 07:36:33;;;;;;;5.05;1.10;;;17.40;99.90;;;;;;4931707;29;20199;-87
2023/07/25 07:38:59;;;;;;;5.75;1.10;;;17.50;99.90;;;;;;4927692;29;20647;-87
2023/07/25 07:41:25;;;;;;;6.75;1.10;;;17.50;99.90;;;;;;4939859;29;20206;-87
2023/07/25 07:43:51;;;;;;;4.70;1.10;;;17.50;99.90;;;;;;4937984;29;20191;-87
2023/07/25 07:46:17;;;;;;;7.10;1.40;;;17.60;99.90;;;;;;4906432;29;20280;-87
2023/07/25 07:48:43;;;;;;;5.25;1.10;;;17.60;99.90;;;;;;4941077;29;20188;-88
2023/07/25 07:51:09;;;;;;;10.05;1.20;;;17.70;99.90;;;;;;4922358;29;20298;-88
2023/07/25 07:53:35;;;;;;;3.70;1.10;;;17.80;99.90;;;;;;4918663;29;20204;-88
2023/07/25 07:56:07;;;;;;;9.60;2.33;;;17.90;99.90;;;;;;4938593;29;20247;-87
2023/07/25 07:58:33;;;;;;;3.70;1.25;;;18.10;99.90;;;;;;4941869;29;20237;-87
2023/07/25 08:00:59;;;;;;;9.05;1.45;;;18.20;99.90;;;;;;4928266;29;20281;-91
2023/07/25 08:03:25;;;;;;;4.25;1.30;;;18.30;99.90;;;;;;4926053;29;20257;-89
2023/07/25 08:05:57;;;;;;;5.72;1.05;;;18.40;99.90;;;;;;4924458;29;20650;-88
2023/07/25 08:08:23;;;;;;;5.10;1.48;;;18.50;99.90;;;;;;4941017;28;20186;-88
2023/07/25 08:10:49;;;;;;;9.80;1.55;;;18.60;99.90;;;;;;4923898;29;20298;-88
2023/07/25 08:13:18;;;;;;;8.10;1.95;;;18.70;99.90;;;;;;4923215;29;20235;-89
2023/07/25 08:15:44;;;;;;;8.40;1.67;;;18.90;99.90;;;;;;4954291;28;20195;-87
2023/07/25 08:18:09;;;;;;;3.15;1.33;;;19.00;99.90;;;;;;4939018;29;20585;-89
2023/07/25 08:20:38;;;;;;;5.80;1.40;;;19.10;99.90;;;;;;4935560;29;20194;-89
2023/07/25 08:23:03;;;;;;;5.97;1.38;;;19.30;99.90;;;;;;4932524;29;20219;-92
2023/07/25 08:25:29;;;;;;;5.95;1.20;;;19.30;99.90;;;;;;4938358;29;20203;-88
2023/07/25 08:27:55;;;;;;;9.60;1.50;;;19.40;99.90;;;;;;4931609;29;20195;-88
2023/07/25 08:30:22;;;;;;;6.13;1.50;;;19.50;99.90;;;;;;4933501;29;20656;-87
2023/07/25 08:32:48;;;;;;;5.72;1.50;;;19.50;99.90;;;;;;4939067;28;20229;-86
2023/07/25 08:35:14;;;;;;;5.55;1.35;;;19.60;99.90;;;;;;4933663;29;20258;-89
2023/07/25 08:37:40;;;;;;;5.18;1.17;;;19.70;99.90;;;;;;4933040;29;20195;-88
2023/07/25 08:40:07;;;;;;;5.93;1.40;;;19.80;99.90;;;;;;4952656;28;20175;-89
2023/07/25 08:42:34;;;;;;;4.28;1.40;;;19.90;99.90;;;;;;4938867;29;20183;-90
2023/07/25 08:45:04;;;;;;;3.42;1.20;;;20.00;99.90;;;;;;4923649;29;20660;-88
2023/07/25 08:47:32;;;;;;;6.82;1.70;;;20.00;99.90;;;;;;4939695;29;20187;-90
2023/07/25 08:50:00;;;;;;;6.10;1.55;;;19.90;99.90;;;;;;4953995;28;20183;-93
2023/07/25 08:52:31;;;;;;;6.97;1.30;;;19.90;99.90;;;;;;4937120;29;20187;-86
2023/07/25 08:54:56;;;;;;;6.18;1.40;;;19.90;99.90;;;;;;4928022;29;20211;-88
2023/07/25 08:57:26;;;;;;;8.48;1.85;;;19.90;99.90;;;;;;4941568;29;20183;-89
2023/07/25 08:59:53;;;;;;;3.85;1.20;;;20.00;99.90;;;;;;4942413;29;20217;-89
2023/07/25 09:02:20;;;;;;;3.65;1.10;;;20.10;99.90;;;;;;4936969;29;20187;-86
2023/07/25 09:04:46;;;;;;;7.07;1.20;;;20.10;99.90;;;;;;4924089;29;20293;-88
2023/07/25 09:07:13;;;;;;;5.55;1.20;;;20.20;99.90;;;;;;4941896;29;20192;-87
2023/07/25 09:09:39;;;;;;;3.90;1.17;;;20.20;99.90;;;;;;4938577;29;20192;-87
2023/07/25 09:12:07;;;;;;;4.15;1.10;;;20.20;99.90;;;;;;4922535;29;20209;-88
2023/07/25 09:14:41;;;;;;;2.83;1.00;;;20.10;99.90;;;;;;4920038;29;20222;-92
2023/07/25 09:17:07;;;;;;;4.68;1.02;;;20.10;99.90;;;;;;4934930;29;20285;-88
2023/07/25 09:19:33;;;;;;;7.55;1.08;;;20.20;99.90;;;;;;4921768;29;20291;-88
2023/07/25 09:22:00;;;;;;;3.42;1.30;;;20.30;99.90;;;;;;4938964;29;20664;-88
2023/07/25 09:24:36;;;;;;;9.57;1.90;;;20.40;99.90;;;;;;4922265;29;20188;-88
2023/07/25 09:27:03;;;;;;;6.35;1.20;;;20.40;99.90;;;;;;4936454;29;20191;-88
2023/07/25 09:29:30;;;;;;;3.47;1.15;;;20.50;99.90;;;;;;4950565;28;20302;-87
2023/07/25 09:31:57;;;;;;;4.80;1.33;;;20.40;99.50;;;;;;4941589;29;20663;-87
2023/07/25 09:34:26;;;;;;;5.72;1.27;;;20.30;99.80;;;;;;4943417;29;20204;-88
2023/07/25 09:36:51;;;;;;;7.10;1.38;;;20.30;99.90;;;;;;4940906;29;20215;-85
2023/07/25 09:39:20;;;;;;;5.95;1.02;;;20.30;99.90;;;;;;4939948;29;20206;-88
2023/07/25 09:41:53;;;;;;;5.30;1.15;;;20.30;99.90;;;;;;4945473;29;20278;-84
2023/07/25 09:44:19;;;;;;;7.60;1.40;;;20.20;99.90;;;;;;4955971;28;21002;-83
2023/07/25 09:46:57;;;;;;;6.10;1.25;;;20.10;99.90;;;;;;4949022;29;20206;-85
2023/07/25 09:49:25;;;;;;;13.77;1.42;;;20.10;99.90;;;;;;4948306;29;20184;-85
2023/07/25 09:52:04;;;;;;;8.65;1.40;;;20.10;99.90;;;;;;4946646;29;20183;-85
2023/07/25 09:54:30;;;;;;;4.75;1.30;;;20.20;99.90;;;;;;4947800;29;20242;-85
2023/07/25 09:56:56;;;;;;;5.88;1.38;;;20.30;99.90;;;;;;4950341;29;20191;-86
2023/07/25 09:59:22;;;;;;;5.20;1.50;;;20.30;99.90;;;;;;4937417;29;20179;-86
2023/07/25 10:01:51;;;;;;;4.45;1.50;;;20.40;99.90;;;;;;4930191;29;20203;-86
2023/07/25 10:04:17;;;;;;;3.67;1.30;;;20.40;99.90;;;;;;4949190;28;20218;-86
2023/07/25 10:06:43;;;;;;;6.45;1.30;;;20.40;99.90;;;;;;4947726;29;20191;-86
2023/07/25 10:09:11;;;;;;;4.13;1.02;;;20.30;99.90;;;;;;4956213;29;20191;-86
2023/07/25 10:11:37;;;;;;;5.75;1.35;;;20.30;99.90;;;;;;4961670;29;20183;-86
2023/07/25 10:14:03;;;;;;;5.65;1.25;;;20.30;99.90;;;;;;4947736;29;20226;-86
2023/07/25 10:16:29;;;;;;;6.53;1.17;;;20.30;99.90;;;;;;4941396;29;20201;-86
2023/07/25 10:18:58;;;;;;;3.45;1.27;;;20.20;99.90;;;;;;4938688;29;20274;-86
2023/07/25 10:21:27;;;;;;;3.80;1.20;;;20.30;99.80;;;;;;4930626;29;20267;-85
2023/07/25 10:24:01;;;;;;;5.28;1.30;;;20.30;99.50;;;;;;4943452;29;20214;-84
2023/07/25 10:26:27;;;;;;;7.43;1.30;;;20.30;99.30;;;;;;4945036;29;20279;-84
2023/07/25 10:28:53;;;;;;;5.55;1.70;;;20.40;99.10;;;;;;4925651;29;20232;-86
2023/07/25 10:31:30;;;;;;;6.22;1.20;;;20.30;98.60;;;;;;4944529;29;20187;-86
2023/07/25 10:33:58;;;;;;;7.20;1.20;;;20.40;98.30;;;;;;4953980;29;20207;-85
2023/07/25 10:36:25;;;;;;;4.20;1.05;;;20.30;98.00;;;;;;4942276;29;20214;-84
2023/07/25 10:38:52;;;;;;;5.93;1.10;;;20.30;97.80;;;;;;4943045;29;20183;-85
2023/07/25 10:41:19;;;;;;;5.05;1.25;;;20.30;97.70;;;;;;4942841;29;20194;-86
2023/07/25 10:43:45;;;;;;;6.80;1.20;;;20.40;97.70;;;;;;4934186;29;20187;-89
2023/07/25 10:46:14;;;;;;;3.42;0.98;;;20.60;97.80;;;;;;4944985;29;20324;-85
2023/07/25 10:49:00;;;;;;;4.07;1.55;;;20.70;97.70;;;;;;4949415;29;20185;-91
2023/07/25 10:51:50;;;;;;;5.80;1.65;;;20.90;97.50;;;;;;4946012;29;20172;-85
2023/07/25 10:54:17;;;;;;;1.88;0.90;;;21.00;97.20;;;;;;4935020;29;20210;-86
2023/07/25 10:57:06;;;;;;;9.23;1.25;;;21.00;97.00;;;;;;4971820;28;20260;-85
2023/07/25 10:59:32;;;;;;;8.90;1.33;;;20.90;96.50;;;;;;4939742;29;20191;-86
2023/07/25 11:01:58;;;;;;;3.72;1.00;;;20.80;96.40;;;;;;4935293;29;20191;-86
2023/07/25 11:04:31;;;;;;;5.57;1.50;;;20.80;96.40;;;;;;4948027;29;20190;-86
2023/07/25 11:06:59;;;;;;;7.05;1.08;;;20.80;96.50;;;;;;4954259;29;20175;-85
2023/07/25 11:09:26;;;;;;;3.80;1.15;;;20.80;96.30;;;;;;4947685;29;20183;-84
2023/07/25 11:11:54;;;;;;;7.20;1.17;;;20.70;96.30;;;;;;4941771;29;20187;-83
2023/07/25 11:14:26;;;;;;;5.32;1.05;;;20.80;96.30;;;;;;4937205;29;20215;-84
2023/07/25 11:16:53;;;;;;;3.95;1.17;;;20.80;96.30;;;;;;4937041;29;20556;-85
2023/07/25 11:19:25;;;;;;;7.68;1.38;;;20.90;96.00;;;;;;4946957;29;20233;-83
2023/07/25 11:21:51;;;;;;;5.55;1.27;;;20.90;95.40;;;;;;4938760;29;20187;-83
2023/07/25 11:24:19;;;;;;;5.50;1.25;;;20.90;95.10;;;;;;4927937;29;20620;-85
2023/07/25 11:26:45;;;;;;;2.60;0.95;;;21.00;95.10;;;;;;4942878;29;20183;-88
2023/07/25 11:29:16;;;;;;;4.75;1.08;;;21.20;95.10;;;;;;4946263;29;20237;-86
2023/07/25 11:31:47;;;;;;;3.72;1.10;;;21.20;94.80;;;;;;4945415;29;20191;-85
2023/07/25 11:34:15;;;;;;;5.45;1.00;;;21.30;94.60;;;;;;4938459;29;20226;-86
2023/07/25 11:36:41;;;;;;;3.70;0.90;;;21.30;94.10;;;;;;4940129;29;20187;-88
2023/07/25 11:39:08;;;;;;;5.57;1.15;;;21.20;93.70;;;;;;4953881;28;20187;-89
2023/07/25 11:41:40;;;;;;;6.50;1.02;;;21.10;93.70;;;;;;4947935;29;20206;-87
2023/07/25 11:44:11;;;;;;;3.42;1.00;;;21.10;93.50;;;;;;4950509;29;20230;-87
2023/07/25 11:46:43;;;;;;;2.90;0.90;;;21.10;93.40;;;;;;4936661;29;20255;-84
2023/07/25 11:49:11;;;;;;;2.88;1.42;;;21.10;93.50;;;;;;4936465;29;20749;-86
2023/07/25 11:51:38;;;;;;;4.20;1.20;;;21.10;93.20;;;;;;4928343;29;20214;-86
2023/07/25 11:54:05;;;;;;;3.60;0.80;;;21.10;92.90;;;;;;4938484;29;20219;-88
2023/07/25 11:56:33;;;;;;;3.05;1.10;;;21.20;92.40;;;;;;4938978;29;20203;-87
2023/07/25 11:59:00;;;;;;;4.80;1.08;;;21.20;92.60;;;;;;4938687;29;20247;-87
2023/07/25 12:01:31;;;;;;;4.10;1.05;;;21.10;92.70;;;;;;4936115;29;20191;-86
2023/07/25 12:04:00;;;;;;;4.40;0.85;;;21.20;92.60;;;;;;4937787;28;20191;-86
2023/07/25 12:06:33;;;;;;;2.50;0.80;;;21.20;92.30;;;;;;4944213;29;20182;-86
2023/07/25 12:09:01;;;;;;;6.13;0.95;;;21.20;92.30;;;;;;4923212;29;20183;-89
2023/07/25 12:11:27;;;;;;;7.30;1.08;;;21.30;92.40;;;;;;4940332;29;20270;-85
2023/07/25 12:13:57;;;;;;;6.47;1.15;;;21.30;92.30;;;;;;4939491;29;20219;-87
2023/07/25 12:16:36;;;;;;;6.25;1.08;;;21.20;92.20;;;;;;4933505;29;20196;-86
2023/07/25 12:19:07;;;;;;;4.20;1.00;;;21.20;92.50;;;;;;4943568;28;20191;-86
2023/07/25 12:21:35;;;;;;;2.17;1.23;;;21.10;92.20;;;;;;4953270;28;20242;-84
2023/07/25 12:24:04;;;;;;;4.35;1.27;;;21.10;92.40;;;;;;4921059;29;20225;-84
2023/07/25 12:26:44;;;;;;;2.67;0.90;;;21.10;92.70;;;;;;4940749;29;20199;-87
2023/07/25 12:29:21;;;;;;;2.70;0.82;;;21.20;92.60;;;;;;4946868;29;20722;-86
2023/07/25 12:32:08;;;;;;;2.00;1.00;;;21.20;92.30;;;;;;4926639;29;20686;-85
2023/07/25 12:34:33;;;;;;;5.00;1.15;;;21.30;92.30;;;;;;4936537;29;20207;-88
2023/07/25 12:37:00;;;;;;;5.80;1.15;;;21.40;92.20;;;;;;4927041;29;20195;-87
2023/07/25 12:39:27;;;;;;;6.20;1.50;;;21.30;92.10;;;;;;4943505;29;20336;-87
2023/07/25 12:41:55;;;;;;;3.65;1.00;;;21.40;92.00;;;;;;4939347;29;20206;-84